Time;durP1;ratioP1;P1;durP2;ratioP2;P2;SDS_P1;SDS_P2;PMS_P1;PMS_P2;Temp;Humidity;BMP_temperature;BMP_pressure;BME280_temperature;BME280_humidity;BME280_pressure;Samples;Min_cycle;Max_cycle;Signal;HPM_P1;HPM_P2
2022/12/14 05:22:33;;;;;;;7.88;5.15;;;;;;;-1.42;95.82;98732.75;5109223;27;20392;-64
2022/12/14 05:24:58;;;;;;;16.52;6.28;;;;;;;-1.38;95.45;98726.25;5109444;28;20040;-65
2022/12/14 05:27:23;;;;;;;11.35;6.68;;;;;;;-1.39;96.09;98734.25;5109231;28;20511;-65
2022/12/14 05:29:49;;;;;;;9.45;6.65;;;;;;;-1.39;93.69;98732.47;5109265;28;20036;-66
2022/12/14 05:32:14;;;;;;;15.20;7.70;;;;;;;-1.37;94.13;98727.09;5109278;28;20046;-65
2022/12/14 05:34:40;;;;;;;12.25;6.00;;;;;;;-1.38;94.53;98715.81;5109227;28;20039;-65
2022/12/14 05:37:05;;;;;;;17.08;8.00;;;;;;;-1.39;95.33;98702.91;5109003;28;20051;-65
2022/12/14 05:39:31;;;;;;;16.50;8.27;;;;;;;-1.41;96.01;98710.06;5090883;28;20050;-65
2022/12/14 05:41:56;;;;;;;10.77;6.30;;;;;;;-1.40;96.09;98701.25;5108969;28;20492;-65
2022/12/14 05:44:22;;;;;;;17.38;7.68;;;;;;;-1.38;96.76;98699.31;5109216;28;20043;-65
2022/12/14 05:46:47;;;;;;;17.15;8.25;;;;;;;-1.37;97.26;98706.19;5109775;28;20040;-65
2022/12/14 05:49:12;;;;;;;15.88;8.57;;;;;;;-1.37;96.70;98708.81;5109059;28;20047;-66
2022/12/14 05:51:38;;;;;;;13.32;6.70;;;;;;;-1.38;97.85;98715.00;5108548;28;20032;-66
2022/12/14 05:54:04;;;;;;;17.05;7.53;;;;;;;-1.38;98.38;98709.78;5108911;28;20465;-66
2022/12/14 05:56:30;;;;;;;13.93;7.75;;;;;;;-1.38;97.91;98710.59;5107566;28;20036;-66
2022/12/14 05:58:55;;;;;;;13.68;6.95;;;;;;;-1.41;98.43;98699.59;5108718;28;20438;-65
2022/12/14 06:01:21;;;;;;;23.20;9.50;;;;;;;-1.49;98.89;98682.00;5108355;28;20444;-65
2022/12/14 06:03:46;;;;;;;16.85;7.75;;;;;;;-1.53;99.84;98679.78;5108693;28;20024;-64
2022/12/14 06:06:12;;;;;;;20.27;7.13;;;;;;;-1.48;99.88;98688.03;5107305;28;20032;-65
2022/12/14 06:08:41;;;;;;;14.18;9.10;;;;;;;-1.51;100.00;98693.53;5108501;28;20381;-65
2022/12/14 06:11:09;;;;;;;17.88;9.40;;;;;;;-1.53;100.00;98683.22;5108118;28;20035;-65
2022/12/14 06:13:36;;;;;;;20.45;9.68;;;;;;;-1.53;100.00;98685.81;5108459;28;20036;-65
2022/12/14 06:16:19;;;;;;;17.50;8.65;;;;;;;-1.54;100.00;98678.97;5108394;28;20048;-65
2022/12/14 06:18:50;;;;;;;22.33;8.40;;;;;;;-1.59;100.00;98675.91;5108386;28;20059;-65
2022/12/14 06:21:17;;;;;;;14.05;7.40;;;;;;;-1.57;100.00;98675.78;5107917;28;20326;-65
2022/12/14 06:23:43;;;;;;;17.25;8.23;;;;;;;-1.60;100.00;98665.63;5108392;28;20101;-65
2022/12/14 06:26:10;;;;;;;22.27;9.93;;;;;;;-1.61;100.00;98680.47;5108160;28;20139;-65
2022/12/14 06:28:36;;;;;;;15.73;7.45;;;;;;;-1.63;100.00;98674.56;5108394;28;20039;-65
2022/12/14 06:31:02;;;;;;;18.38;8.77;;;;;;;-1.61;100.00;98667.41;5106652;28;20047;-65
2022/12/14 06:33:28;;;;;;;24.38;9.45;;;;;;;-1.58;100.00;98663.69;5097107;28;20039;-64
2022/12/14 06:35:53;;;;;;;12.90;8.52;;;;;;;-1.54;100.00;98652.03;5094421;28;20036;-64
2022/12/14 06:38:19;;;;;;;19.83;9.02;;;;;;;-1.56;100.00;98633.88;5094357;28;20115;-64
2022/12/14 06:40:44;;;;;;;21.60;10.10;;;;;;;-1.62;100.00;98637.03;5094085;28;20124;-63
2022/12/14 06:43:11;;;;;;;19.25;7.97;;;;;;;-1.57;100.00;98632.19;5094174;28;20061;-64
2022/12/14 06:45:37;;;;;;;23.02;9.93;;;;;;;-1.53;100.00;98632.78;5094247;28;20036;-63
2022/12/14 06:48:03;;;;;;;18.77;8.90;;;;;;;-1.58;100.00;98621.91;5094232;28;20408;-64
2022/12/14 06:50:29;;;;;;;17.05;7.32;;;;;;;-1.54;100.00;98620.69;5093802;28;20131;-64
2022/12/14 06:52:54;;;;;;;20.00;10.40;;;;;;;-1.50;100.00;98620.28;5094004;28;20127;-64
2022/12/14 06:55:21;;;;;;;15.35;9.88;;;;;;;-1.48;100.00;98609.69;5093988;28;20059;-65
2022/12/14 06:57:49;;;;;;;17.02;7.85;;;;;;;-1.48;100.00;98610.50;5092885;28;20043;-64
2022/12/14 07:00:15;;;;;;;18.17;9.23;;;;;;;-1.46;100.00;98615.59;5093685;28;20461;-64
2022/12/14 07:02:40;;;;;;;14.13;7.65;;;;;;;-1.57;100.00;98616.53;5093993;28;20115;-63
2022/12/14 07:05:06;;;;;;;16.58;8.02;;;;;;;-1.53;100.00;98617.09;5093529;28;20488;-61
2022/12/14 07:07:32;;;;;;;17.73;9.13;;;;;;;-1.48;100.00;98620.13;5094047;28;20048;-63
2022/12/14 07:09:58;;;;;;;18.15;9.18;;;;;;;-1.50;100.00;98617.66;5093968;28;20108;-67
2022/12/14 07:12:23;;;;;;;20.98;8.30;;;;;;;-1.41;100.00;98627.28;5092364;28;20420;-67
2022/12/14 07:14:49;;;;;;;16.38;9.10;;;;;;;-1.28;100.00;98623.59;5093694;28;20060;-69
2022/12/14 07:17:14;;;;;;;15.50;9.15;;;;;;;-1.28;100.00;98616.56;5093532;28;20073;-68
2022/12/14 07:19:42;;;;;;;20.92;8.50;;;;;;;-1.32;100.00;98635.25;5092216;28;20080;-67
2022/12/14 07:22:08;;;;;;;22.15;8.68;;;;;;;-1.26;100.00;98637.31;5093214;28;20440;-69
2022/12/14 07:24:33;;;;;;;18.35;9.40;;;;;;;-1.29;100.00;98637.63;5093476;28;20047;-69
2022/12/14 07:26:59;;;;;;;18.80;9.63;;;;;;;-1.26;100.00;98634.72;5093613;28;20042;-68
2022/12/14 07:29:24;;;;;;;20.00;8.90;;;;;;;-1.23;100.00;98630.06;5093368;28;20044;-68
2022/12/14 07:31:50;;;;;;;16.98;8.65;;;;;;;-1.35;100.00;98615.47;5092902;28;20040;-67
2022/12/14 07:34:16;;;;;;;17.92;8.77;;;;;;;-1.27;100.00;98612.16;5092066;28;20459;-69
2022/12/14 07:36:42;;;;;;;23.30;9.02;;;;;;;-1.22;100.00;98610.78;5093243;28;20102;-69
2022/12/14 07:39:13;;;;;;;20.77;9.45;;;;;;;-1.20;100.00;98611.47;5093299;28;20481;-69
2022/12/14 07:41:38;;;;;;;16.38;9.27;;;;;;;-1.25;100.00;98611.06;5092945;28;20442;-67
2022/12/14 07:44:04;;;;;;;20.38;9.38;;;;;;;-1.23;100.00;98603.91;5090839;28;20063;-67
2022/12/14 07:46:33;;;;;;;15.93;9.57;;;;;;;-1.24;100.00;98597.06;5093024;28;20153;-67
2022/12/14 07:48:59;;;;;;;16.40;8.23;;;;;;;-1.22;100.00;98602.13;5093053;28;20618;-67
2022/12/14 07:51:27;;;;;;;30.45;9.95;;;;;;;-1.21;100.00;98595.94;5092494;28;20086;-67
2022/12/14 07:53:53;;;;;;;16.02;8.20;;;;;;;-1.23;100.00;98606.53;5092962;28;20122;-67
2022/12/14 07:56:25;;;;;;;16.60;9.02;;;;;;;-1.34;100.00;98601.44;5089456;28;20146;-67
2022/12/14 07:58:51;;;;;;;15.18;8.85;;;;;;;-1.26;100.00;98609.41;5090807;28;20043;-68
2022/12/14 08:01:23;;;;;;;19.92;9.52;;;;;;;-1.26;100.00;98613.81;5092250;28;20081;-65
2022/12/14 08:04:11;;;;;;;14.23;8.02;;;;;;;-1.20;100.00;98618.47;5092857;28;20134;-67
2022/12/14 08:06:38;;;;;;;22.65;8.85;;;;;;;-1.16;100.00;98614.66;5092349;28;20104;-66
2022/12/14 08:09:05;;;;;;;19.60;8.60;;;;;;;-1.18;100.00;98608.72;5092648;28;20393;-67
2022/12/14 08:11:31;;;;;;;21.58;10.48;;;;;;;-1.17;100.00;98616.44;5091937;28;20116;-67
2022/12/14 08:13:58;;;;;;;10.35;6.28;;;;;;;-1.26;100.00;98614.63;5092398;28;20063;-67
2022/12/14 08:16:25;;;;;;;19.15;9.32;;;;;;;-1.21;100.00;98622.06;5092320;28;20429;-66
2022/12/14 08:18:52;;;;;;;20.00;9.93;;;;;;;-1.18;100.00;98622.59;5092338;28;20100;-67
2022/12/14 08:21:20;;;;;;;22.35;10.32;;;;;;;-1.26;100.00;98624.25;5093788;28;20110;-66
2022/12/14 08:23:49;;;;;;;22.85;10.27;;;;;;;-1.19;100.00;98620.13;5094831;28;20324;-67
2022/12/14 08:26:15;;;;;;;19.95;7.95;;;;;;;-1.16;100.00;98618.09;5092311;28;20090;-66
2022/12/14 08:28:41;;;;;;;21.13;9.65;;;;;;;-1.12;100.00;98611.59;5092402;28;20036;-67
2022/12/14 08:31:09;;;;;;;16.02;8.10;;;;;;;-1.14;100.00;98608.31;5090313;28;20055;-67
2022/12/14 08:33:35;;;;;;;23.88;8.48;;;;;;;-1.12;100.00;98598.53;5090922;28;20044;-67
2022/12/14 08:36:08;;;;;;;16.30;9.80;;;;;;;-1.04;100.00;98571.72;5090415;28;20047;-68
2022/12/14 08:38:34;;;;;;;15.55;8.10;;;;;;;-0.99;100.00;98584.34;5092489;28;20374;-67
2022/12/14 08:41:18;;;;;;;19.75;8.70;;;;;;;-0.97;100.00;98577.22;5087364;28;20439;-66
2022/12/14 08:43:52;;;;;;;17.95;8.95;;;;;;;-0.99;100.00;98579.94;5090601;28;20127;-64
2022/12/14 08:46:19;;;;;;;16.90;7.85;;;;;;;-1.10;100.00;98567.06;5091718;28;20106;-64
2022/12/14 08:48:45;;;;;;;14.32;8.25;;;;;;;-1.02;100.00;98569.78;5092111;28;20051;-67
2022/12/14 08:51:11;;;;;;;15.68;8.13;;;;;;;-1.00;100.00;98561.78;5091479;28;20032;-67
2022/12/14 08:53:37;;;;;;;19.10;8.43;;;;;;;-0.97;100.00;98567.56;5090679;28;20044;-66
2022/12/14 08:56:24;;;;;;;21.27;10.35;;;;;;;-1.00;100.00;98564.41;5091305;28;20055;-66
2022/12/14 08:58:49;;;;;;;17.77;7.53;;;;;;;-0.98;100.00;98560.69;5091646;28;20032;-67
2022/12/14 09:01:18;;;;;;;17.73;8.18;;;;;;;-0.96;100.00;98564.00;5090164;28;20035;-67
2022/12/14 09:03:44;;;;;;;21.23;8.80;;;;;;;-1.02;100.00;98569.78;5091687;28;20415;-68
2022/12/14 09:06:13;;;;;;;18.88;9.27;;;;;;;-1.02;100.00;98580.22;5091386;28;20047;-67
2022/12/14 09:08:39;;;;;;;13.23;8.38;;;;;;;-0.94;100.00;98587.38;5073349;28;20040;-67
2022/12/14 09:11:05;;;;;;;18.52;8.43;;;;;;;-0.96;100.00;98586.69;5091128;28;20397;-66
2022/12/14 09:13:31;;;;;;;22.30;11.10;;;;;;;-0.99;100.00;98586.97;5091496;28;20040;-67
2022/12/14 09:16:04;;;;;;;16.10;7.45;;;;;;;-0.98;100.00;98597.28;5091196;28;20046;-68
2022/12/14 09:18:30;;;;;;;23.67;7.78;;;;;;;-1.00;100.00;98580.91;5091519;28;20043;-68
2022/12/14 09:20:56;;;;;;;17.70;8.75;;;;;;;-0.96;100.00;98590.13;5090912;28;20044;-68
2022/12/14 09:23:27;;;;;;;19.05;7.32;;;;;;;-1.00;100.00;98607.03;5091323;28;20097;-68
2022/12/14 09:26:08;;;;;;;18.83;8.57;;;;;;;-0.97;100.00;98606.78;5095087;28;20479;-68
2022/12/14 09:28:36;;;;;;;22.45;9.40;;;;;;;-1.15;100.00;98608.44;5099879;28;20075;-66
2022/12/14 09:31:10;;;;;;;22.23;8.95;;;;;;;-1.19;100.00;98610.50;5098998;28;20134;-68
2022/12/14 09:33:36;;;;;;;20.83;8.82;;;;;;;-1.29;100.00;98611.50;5107987;28;20046;-65
2022/12/14 09:36:07;;;;;;;21.85;9.50;;;;;;;-1.14;100.00;98607.47;5095330;28;20027;-66
2022/12/14 09:38:35;;;;;;;17.92;10.60;;;;;;;-1.17;100.00;98613.81;5103060;28;20141;-67
2022/12/14 09:41:03;;;;;;;20.95;10.05;;;;;;;-1.08;100.00;98612.16;5101980;28;20047;-67
2022/12/14 09:43:46;;;;;;;23.35;9.90;;;;;;;-1.11;100.00;98601.97;5094200;28;20521;-65
2022/12/14 09:46:31;;;;;;;19.88;8.43;;;;;;;-1.07;100.00;98599.91;5081437;28;20038;-64
2022/12/14 09:48:57;;;;;;;21.35;9.32;;;;;;;-1.07;100.00;98597.28;5099610;28;20040;-66
2022/12/14 09:51:33;;;;;;;24.10;10.73;;;;;;;-1.02;100.00;98597.72;5106297;28;20160;-63
2022/12/14 09:54:05;;;;;;;29.13;10.32;;;;;;;-0.96;100.00;98591.91;5078065;28;20073;-64
2022/12/14 09:56:32;;;;;;;24.10;10.07;;;;;;;-1.03;100.00;98586.44;5102977;28;20157;-65
2022/12/14 09:58:59;;;;;;;19.30;10.57;;;;;;;-1.02;100.00;98572.41;5102617;28;20039;-65
2022/12/14 10:01:49;;;;;;;18.60;9.17;;;;;;;-0.93;100.00;98581.16;5095394;28;20032;-64
2022/12/14 10:04:32;;;;;;;25.75;10.45;;;;;;;-0.93;100.00;98586.41;5082308;28;20028;-64
2022/12/14 10:06:57;;;;;;;18.42;9.25;;;;;;;-0.95;100.00;98594.38;5099057;28;20036;-65
2022/12/14 10:09:57;;;;;;;19.35;9.43;;;;;;;-0.99;100.00;98584.34;5110077;28;20054;-64
2022/12/14 10:12:47;;;;;;;16.92;9.15;;;;;;;-0.94;100.00;98588.19;5088025;28;20395;-64
2022/12/14 10:15:28;;;;;;;24.33;11.13;;;;;;;-0.90;100.00;98588.75;5100938;28;20055;-65
2022/12/14 10:17:59;;;;;;;18.23;9.65;;;;;;;-0.91;100.00;98595.78;5094647;28;20400;-65
2022/12/14 10:20:35;;;;;;;21.95;9.50;;;;;;;-0.85;100.00;98599.59;5094300;28;20116;-65
2022/12/14 10:23:02;;;;;;;19.45;10.07;;;;;;;-1.13;100.00;98606.50;5094984;28;20047;-65
2022/12/14 10:25:31;;;;;;;19.10;8.45;;;;;;;-1.12;100.00;98605.53;5094467;28;20040;-65
2022/12/14 10:28:03;;;;;;;22.27;9.63;;;;;;;-1.02;100.00;98608.97;5094479;28;20381;-64
2022/12/14 10:30:30;;;;;;;23.88;9.32;;;;;;;-1.02;100.00;98611.59;5093996;28;20031;-64
2022/12/14 10:33:05;;;;;;;21.98;9.48;;;;;;;-1.04;100.00;98607.47;5093095;28;20050;-65
2022/12/14 10:35:40;;;;;;;18.08;8.73;;;;;;;-1.14;100.00;98586.56;5094408;28;20069;-65
2022/12/14 10:38:16;;;;;;;18.60;8.40;;;;;;;-0.96;100.00;98595.34;5094386;28;20477;-64
2022/12/14 10:40:49;;;;;;;17.15;8.82;;;;;;;-0.92;100.00;98598.50;5093997;28;20473;-66
2022/12/14 10:43:39;;;;;;;26.05;10.73;;;;;;;-0.97;100.00;98593.72;5093178;28;20035;-65
2022/12/14 10:46:24;;;;;;;18.92;9.85;;;;;;;-0.91;100.00;98590.53;5094133;28;20127;-66
2022/12/14 10:49:00;;;;;;;22.15;10.45;;;;;;;-0.83;100.00;98595.06;5094107;28;20040;-65
2022/12/14 10:51:32;;;;;;;17.25;9.50;;;;;;;-0.75;100.00;98591.72;5093851;28;20032;-65
2022/12/14 10:54:26;;;;;;;18.67;9.88;;;;;;;-0.95;100.00;98590.94;5094270;28;20396;-65
2022/12/14 10:56:51;;;;;;;19.73;9.52;;;;;;;-0.96;100.00;98589.31;5094097;28;20036;-65
2022/12/14 10:59:16;;;;;;;17.98;10.55;;;;;;;-0.87;100.00;98591.88;5093993;28;20051;-65
2022/12/14 11:01:44;;;;;;;22.63;10.20;;;;;;;-0.91;100.00;98595.78;5091776;28;20491;-65
2022/12/14 11:04:21;;;;;;;;;;;;;;;-0.83;100.00;98590.66;5092268;28;20027;-64
2022/12/14 11:06:47;;;;;;;15.73;7.90;;;;;;;-0.75;100.00;98595.16;5093566;28;19919;-64
2022/12/14 11:09:23;;;;;;;26.30;11.15;;;;;;;-0.70;100.00;98592.13;5093692;28;20032;-67
2022/12/14 11:12:00;;;;;;;22.75;9.48;;;;;;;-0.62;100.00;98593.06;5093100;28;20095;-65
2022/12/14 11:14:26;;;;;;;16.40;8.93;;;;;;;-0.58;100.00;98588.38;5093753;28;20036;-65
2022/12/14 11:16:51;;;;;;;27.98;9.38;;;;;;;-0.68;100.00;98591.03;5093492;28;20388;-65
2022/12/14 11:19:22;;;;;;;25.05;11.40;;;;;;;-0.65;100.00;98582.09;5093514;28;20036;-64
2022/12/14 11:21:49;;;;;;;33.15;11.20;;;;;;;-0.85;100.00;98591.75;5093414;28;20090;-64
2022/12/14 11:24:26;;;;;;;18.08;9.50;;;;;;;-0.73;100.00;98592.41;5093406;28;20139;-64
2022/12/14 11:27:01;;;;;;;21.73;11.20;;;;;;;-0.72;100.00;98599.28;5093433;28;20043;-67
2022/12/14 11:29:32;;;;;;;32.40;12.95;;;;;;;-0.88;100.00;98586.81;5093684;28;20119;-64
2022/12/14 11:31:59;;;;;;;25.83;10.88;;;;;;;-0.74;100.00;98580.31;5093300;28;20032;-66
2022/12/14 11:34:41;;;;;;;25.77;11.57;;;;;;;-0.74;100.00;98591.59;5093206;28;20028;-67
2022/12/14 11:37:19;;;;;;;24.08;11.18;;;;;;;-0.76;100.00;98592.72;5093229;28;20081;-66
2022/12/14 11:39:50;;;;;;;21.48;10.00;;;;;;;-0.70;100.00;98600.00;5093330;28;20036;-66
2022/12/14 11:42:17;;;;;;;26.10;11.00;;;;;;;-0.77;100.00;98598.91;5092812;28;20491;-66
2022/12/14 11:44:44;;;;;;;27.60;11.73;;;;;;;-0.93;100.00;98599.47;5093146;28;20039;-67
2022/12/14 11:47:25;;;;;;;26.63;10.05;;;;;;;-0.79;100.00;98611.28;5092891;28;20034;-67
2022/12/14 11:49:56;;;;;;;25.48;10.15;;;;;;;-0.87;100.00;98614.59;5092749;28;20366;-67
2022/12/14 11:52:38;;;;;;;25.10;10.60;;;;;;;-0.76;100.00;98613.63;5092847;28;20040;-68
2022/12/14 11:55:25;;;;;;;29.42;10.80;;;;;;;-0.76;100.00;98606.59;5092778;28;20679;-67
2022/12/14 11:57:57;;;;;;;32.60;11.77;;;;;;;-0.71;100.00;98608.81;5092702;28;20120;-66
2022/12/14 12:00:26;;;;;;;33.80;13.07;;;;;;;-0.71;100.00;98608.81;5091703;28;20720;-65
2022/12/14 12:03:02;;;;;;;27.83;9.88;;;;;;;-0.90;100.00;98600.03;5092888;28;20036;-66
2022/12/14 12:05:31;;;;;;;30.63;11.07;;;;;;;-0.80;100.00;98588.72;5092769;28;20031;-68
2022/12/14 12:07:58;;;;;;;35.75;11.93;;;;;;;-0.74;100.00;98582.91;5092654;28;20036;-66
2022/12/14 12:10:42;;;;;;;28.50;11.18;;;;;;;-0.74;100.00;98588.16;5092311;28;20041;-67
2022/12/14 12:13:26;;;;;;;26.88;11.88;;;;;;;-0.67;100.00;98594.47;5092728;28;20035;-65
2022/12/14 12:15:55;;;;;;;28.65;11.98;;;;;;;-0.70;100.00;98618.28;5092577;28;20043;-67
2022/12/14 12:18:27;;;;;;;27.15;11.82;;;;;;;-0.73;100.00;98632.47;5092552;28;20071;-67
2022/12/14 12:21:09;;;;;;;30.63;12.07;;;;;;;-0.77;100.00;98623.25;5091981;28;20040;-68
2022/12/14 12:24:04;;;;;;;22.65;10.57;;;;;;;-0.71;100.00;98627.09;5091907;28;20032;-68
2022/12/14 12:26:35;;;;;;;31.98;11.60;;;;;;;-0.86;100.00;98621.47;5092070;28;20032;-69
2022/12/14 12:29:13;;;;;;;32.42;12.48;;;;;;;-0.99;100.00;98620.94;5092482;28;20055;-67
2022/12/14 12:31:44;;;;;;;23.50;11.10;;;;;;;-0.95;100.00;98619.72;5091445;28;20032;-68
2022/12/14 12:34:17;;;;;;;29.77;11.07;;;;;;;-1.01;100.00;98612.44;5092346;28;20081;-68
2022/12/14 12:36:44;;;;;;;32.25;12.95;;;;;;;-0.90;100.00;98617.50;5092059;28;20040;-66
2022/12/14 12:39:23;;;;;;;28.73;11.00;;;;;;;-0.95;100.00;98622.31;5092168;28;20024;-69
2022/12/14 12:42:04;;;;;;;27.88;11.10;;;;;;;-0.89;100.00;98622.59;5091743;28;20035;-68
2022/12/14 12:44:48;;;;;;;23.27;10.35;;;;;;;-0.83;100.00;98632.50;5092121;28;20036;-67
2022/12/14 12:47:22;;;;;;;36.45;13.50;;;;;;;-0.82;100.00;98628.91;5092010;28;20381;-68
2022/12/14 12:49:48;;;;;;;37.40;12.82;;;;;;;-0.76;100.00;98626.69;5091978;28;20123;-72
2022/12/14 12:52:30;;;;;;;25.55;10.68;;;;;;;-0.91;100.00;98621.09;5091640;28;20173;-71
2022/12/14 12:55:12;;;;;;;28.52;10.82;;;;;;;-1.05;100.00;98619.69;5091880;28;20040;-69
2022/12/14 12:57:46;;;;;;;32.55;11.68;;;;;;;-1.04;100.00;98610.94;5089085;28;20066;-69
2022/12/14 13:00:26;;;;;;;27.73;10.35;;;;;;;-1.02;100.00;98621.22;5091315;28;20115;-69
2022/12/14 13:03:08;;;;;;;28.88;11.65;;;;;;;-1.04;100.00;98613.53;5091664;28;20057;-69
2022/12/14 13:05:38;;;;;;;35.78;12.00;;;;;;;-0.96;100.00;98616.28;5091741;28;20039;-71
2022/12/14 13:08:27;;;;;;;26.30;9.73;;;;;;;-0.96;100.00;98621.50;5091724;28;20100;-70
2022/12/14 13:10:57;;;;;;;35.10;13.43;;;;;;;-0.84;100.00;98625.63;5090940;28;20044;-71
2022/12/14 13:13:31;;;;;;;24.08;10.77;;;;;;;-0.92;100.00;98629.88;5091863;28;20040;-71
2022/12/14 13:16:12;;;;;;;27.35;12.02;;;;;;;-0.85;100.00;98631.81;5093302;28;20100;-73
2022/12/14 13:18:47;;;;;;;35.00;13.63;;;;;;;-0.86;100.00;98629.31;5090344;28;20035;-73
2022/12/14 13:21:35;;;;;;;30.20;12.32;;;;;;;-0.95;100.00;98644.06;5093731;28;20028;-74
2022/12/14 13:24:14;;;;;;;;;;;;;;;-0.85;100.00;98639.66;5093645;28;20043;-73
2022/12/14 13:27:08;;;;;;;21.58;9.50;;;;;;;-0.87;100.00;98636.34;5091800;28;19912;-70
2022/12/14 13:30:00;;;;;;;22.52;10.05;;;;;;;-0.96;100.00;98642.41;5091501;28;20036;-68
2022/12/14 13:32:52;;;;;;;30.77;11.63;;;;;;;-0.90;100.00;98639.25;5091249;28;20582;-69
2022/12/14 13:35:39;;;;;;;21.98;11.38;;;;;;;-0.83;100.00;98642.94;5090117;28;20505;-70
2022/12/14 13:38:19;;;;;;;28.95;12.40;;;;;;;-0.92;100.00;98649.00;5091403;28;20039;-70
2022/12/14 13:41:03;;;;;;;27.63;12.40;;;;;;;-0.85;100.00;98644.88;5090666;28;20596;-71
2022/12/14 13:43:50;;;;;;;32.33;12.45;;;;;;;-0.86;100.00;98647.63;5088231;28;20042;-71
2022/12/14 13:46:22;;;;;;;27.13;11.25;;;;;;;-0.88;100.00;98653.00;5094238;28;20075;-69
2022/12/14 13:48:52;;;;;;;28.70;13.20;;;;;;;-0.86;100.00;98658.91;5095362;28;20101;-68
2022/12/14 13:51:36;;;;;;;34.20;12.82;;;;;;;-0.87;100.00;98661.66;5094978;28;20127;-68
2022/12/14 13:54:05;;;;;;;25.20;10.68;;;;;;;-0.88;100.00;98666.06;5092831;28;20044;-67
2022/12/14 13:56:37;;;;;;;28.60;10.65;;;;;;;-1.04;100.00;98667.56;5083827;28;20505;-69
2022/12/14 13:59:06;;;;;;;29.88;11.82;;;;;;;-0.98;100.00;98669.63;5074781;28;20103;-69
2022/12/14 14:01:47;;;;;;;25.42;11.35;;;;;;;-0.99;100.00;98674.03;5079975;28;20032;-69
2022/12/14 14:04:12;;;;;;;32.83;11.82;;;;;;;-0.92;100.00;98680.38;5077636;28;20034;-69
2022/12/14 14:06:46;;;;;;;35.22;13.75;;;;;;;-0.89;100.00;98690.56;5077255;28;20123;-69
2022/12/14 14:09:30;;;;;;;29.33;13.20;;;;;;;-0.91;100.00;98696.91;5074742;28;20202;-69
2022/12/14 14:11:59;;;;;;;25.88;10.73;;;;;;;-0.87;100.00;98687.81;5082527;28;20081;-71
2022/12/14 14:14:38;;;;;;;32.70;12.63;;;;;;;-0.91;100.00;98700.34;5093106;28;20052;-72
2022/12/14 14:17:23;;;;;;;36.53;12.60;;;;;;;-0.96;100.00;98699.91;5092627;28;20044;-70
2022/12/14 14:19:51;;;;;;;31.85;10.85;;;;;;;-0.88;100.00;98705.28;5082857;28;20028;-70
2022/12/14 14:22:26;;;;;;;35.33;11.82;;;;;;;-0.84;100.00;98700.63;5093799;28;20043;-69
2022/12/14 14:25:23;;;;;;;29.17;12.18;;;;;;;-0.86;100.00;98705.97;5094458;28;20036;-69
2022/12/14 14:27:50;;;;;;;24.98;11.75;;;;;;;-0.88;100.00;98707.06;5074116;28;20036;-71
2022/12/14 14:30:40;;;;;;;36.85;13.30;;;;;;;-0.83;100.00;98718.78;5073390;28;20024;-71
2022/12/14 14:33:31;;;;;;;37.13;11.70;;;;;;;-0.83;100.00;98721.38;5074276;28;20059;-69
2022/12/14 14:36:18;;;;;;;31.38;12.55;;;;;;;-0.76;100.00;98728.69;5087664;28;20372;-70
2022/12/14 14:38:44;;;;;;;36.10;13.02;;;;;;;-0.77;100.00;98735.69;5095342;28;20036;-70
2022/12/14 14:41:13;;;;;;;35.13;12.57;;;;;;;-0.84;100.00;98745.88;5094847;28;20040;-70
2022/12/14 14:43:45;;;;;;;35.58;12.48;;;;;;;-0.77;100.00;98750.56;5093234;28;20028;-70
2022/12/14 14:46:11;;;;;;;35.75;13.82;;;;;;;-0.75;100.00;98754.69;5094645;28;20054;-72
2022/12/14 14:48:51;;;;;;;39.67;13.00;;;;;;;-0.73;100.00;98757.16;5094174;28;20051;-71
2022/12/14 14:51:28;;;;;;;27.60;12.23;;;;;;;-0.69;100.00;98763.78;5071314;28;20044;-72
2022/12/14 14:54:16;;;;;;;38.25;12.95;;;;;;;-0.71;100.00;98765.72;5073740;28;20040;-73
2022/12/14 14:56:43;;;;;;;36.63;14.60;;;;;;;-0.69;100.00;98769.81;5074374;28;20073;-70
2022/12/14 14:59:18;;;;;;;38.67;13.23;;;;;;;-0.68;100.00;98770.66;5072911;28;20518;-69
2022/12/14 15:01:46;;;;;;;31.55;11.45;;;;;;;-0.72;100.00;98779.72;5074103;28;20327;-68
2022/12/14 15:04:15;;;;;;;36.05;13.02;;;;;;;-0.70;100.00;98772.59;5074038;28;20039;-69
2022/12/14 15:06:42;;;;;;;40.45;14.05;;;;;;;-0.68;100.00;98781.09;5073750;28;20488;-70
2022/12/14 15:09:08;;;;;;;40.22;14.55;;;;;;;-0.74;100.00;98776.44;5073780;28;20037;-70
2022/12/14 15:11:42;;;;;;;29.02;13.05;;;;;;;-0.71;100.00;98784.00;5072371;28;20115;-69
2022/12/14 15:14:28;;;;;;;41.20;14.43;;;;;;;-0.79;100.00;98776.81;5073668;28;20039;-72
2022/12/14 15:16:54;;;;;;;29.02;12.48;;;;;;;-0.86;100.00;98771.31;5073802;28;20067;-71
2022/12/14 15:19:22;;;;;;;36.08;15.45;;;;;;;-0.93;100.00;98770.22;5073514;28;20094;-68
2022/12/14 15:21:58;;;;;;;47.70;15.60;;;;;;;-0.87;100.00;98777.50;5072955;28;20044;-69
2022/12/14 15:24:24;;;;;;;40.35;14.27;;;;;;;-0.84;100.00;98798.19;5073529;28;20041;-68
2022/12/14 15:26:51;;;;;;;36.35;14.93;;;;;;;-0.86;100.00;98794.84;5073207;28;20051;-68
2022/12/14 15:29:21;;;;;;;32.72;13.05;;;;;;;-0.86;100.00;98805.31;5073376;28;20067;-71
2022/12/14 15:31:53;;;;;;;35.20;13.80;;;;;;;-0.83;100.00;98809.47;5072984;28;20410;-68
2022/12/14 15:34:19;;;;;;;26.30;11.00;;;;;;;-0.88;100.00;98820.31;5073207;28;20040;-71
2022/12/14 15:36:46;;;;;;;34.97;12.55;;;;;;;-0.85;100.00;98829.66;5073197;28;20037;-68
2022/12/14 15:39:32;;;;;;;34.97;12.23;;;;;;;-0.86;100.00;98826.22;5073166;28;20036;-68
2022/12/14 15:42:21;;;;;;;31.45;13.98;;;;;;;-0.86;100.00;98833.25;5072808;28;20040;-68
2022/12/14 15:44:49;;;;;;;34.78;13.68;;;;;;;-0.94;100.00;98828.69;5072775;28;20497;-70
2022/12/14 15:47:23;;;;;;;27.08;12.65;;;;;;;-0.95;100.00;98832.28;5073698;28;20413;-68
2022/12/14 15:49:49;;;;;;;28.75;12.75;;;;;;;-0.90;100.00;98837.09;5073080;28;20036;-68
2022/12/14 15:52:15;;;;;;;42.65;13.48;;;;;;;-0.91;100.00;98832.84;5072386;28;20509;-69
2022/12/14 15:54:42;;;;;;;28.75;12.98;;;;;;;-0.88;100.00;98840.41;5072781;28;20425;-67
2022/12/14 15:57:15;;;;;;;31.60;11.15;;;;;;;-0.86;100.00;98841.91;5072556;28;20043;-67
2022/12/14 15:59:43;;;;;;;36.92;13.07;;;;;;;-0.88;100.00;98838.63;5072792;28;20037;-67
2022/12/14 16:02:31;;;;;;;28.85;11.00;;;;;;;-0.87;100.00;98831.59;5072368;28;20044;-69
2022/12/14 16:05:02;;;;;;;34.63;12.98;;;;;;;-0.81;100.00;98838.91;5071933;28;20112;-68
2022/12/14 16:07:38;;;;;;;30.38;14.18;;;;;;;-0.85;100.00;98838.38;5073176;28;20028;-71
2022/12/14 16:10:17;;;;;;;42.88;14.77;;;;;;;-0.96;100.00;98851.53;5072482;28;20135;-69
2022/12/14 16:12:46;;;;;;;30.80;12.60;;;;;;;-0.94;100.00;98862.69;5072542;28;20040;-67
2022/12/14 16:15:18;;;;;;;25.13;10.93;;;;;;;-0.94;100.00;98872.31;5072240;28;20116;-69
2022/12/14 16:17:44;;;;;;;42.50;12.93;;;;;;;-0.98;100.00;98877.00;5072213;28;20037;-68
2022/12/14 16:20:25;;;;;;;28.10;11.18;;;;;;;-0.96;100.00;98874.25;5070609;28;20044;-68
2022/12/14 16:23:04;;;;;;;33.67;13.02;;;;;;;-0.93;100.00;98863.50;5072365;28;20082;-68
2022/12/14 16:25:33;;;;;;;25.15;12.40;;;;;;;-1.03;100.00;98865.28;5072088;28;20112;-68
2022/12/14 16:28:38;;;;;;;29.45;11.65;;;;;;;-1.00;100.00;98873.66;5072041;28;20028;-67
2022/12/14 16:31:18;;;;;;;32.70;11.88;;;;;;;-0.94;100.00;98874.94;5071551;28;20048;-67
2022/12/14 16:34:04;;;;;;;29.60;11.20;;;;;;;-0.91;100.00;98872.06;5072254;28;20566;-70
2022/12/14 16:36:33;;;;;;;37.15;14.45;;;;;;;-0.96;100.00;98877.69;5071939;28;20543;-67
2022/12/14 16:39:15;;;;;;;24.77;9.85;;;;;;;-0.99;100.00;98880.53;5071962;28;20451;-67
2022/12/14 16:42:05;;;;;;;26.40;12.48;;;;;;;-0.98;100.00;98876.16;5071922;28;20064;-68
2022/12/14 16:44:31;;;;;;;30.08;13.88;;;;;;;-0.94;100.00;98880.97;5069010;28;20055;-67
2022/12/14 16:46:59;;;;;;;29.65;12.48;;;;;;;-1.00;100.00;98891.97;5070404;28;20123;-65
2022/12/14 16:49:34;;;;;;;26.63;11.38;;;;;;;-0.92;100.00;98899.97;5071825;28;20032;-65
2022/12/14 16:52:25;;;;;;;32.40;10.63;;;;;;;-0.94;100.00;98901.06;5071734;28;20397;-64
2022/12/14 16:55:12;;;;;;;37.33;12.75;;;;;;;-0.94;100.00;98909.75;5071910;28;20036;-65
2022/12/14 16:57:49;;;;;;;34.55;13.48;;;;;;;-0.98;100.00;98910.97;5071837;28;20028;-65
2022/12/14 17:00:31;;;;;;;33.65;12.80;;;;;;;-0.97;100.00;98912.63;5071459;28;20043;-66